createdAt,value
2022-09-04T00:01:19.462Z,2.07
2022-09-04T00:03:57.693Z,2.40
2022-09-04T00:06:34.108Z,2.50
2022-09-04T00:09:12.288Z,2.83
2022-09-04T00:11:47.781Z,2.77
2022-09-04T00:14:21.464Z,2.57
2022-09-04T00:16:58.526Z,2.60
2022-09-04T00:19:35.958Z,2.63
2022-09-04T00:22:14.405Z,2.20
2022-09-04T00:24:51.071Z,2.43
2022-09-04T00:27:24.700Z,2.50
2022-09-04T00:30:02.238Z,2.70
2022-09-04T00:32:37.873Z,2.80
2022-09-04T00:35:11.715Z,2.80
2022-09-04T00:37:44.280Z,2.87
2022-09-04T00:40:22.034Z,3.33
2022-09-04T00:43:26.306Z,2.40
2022-09-04T00:46:13.285Z,2.60
2022-09-04T00:49:14.710Z,2.37
2022-09-04T00:51:54.468Z,2.87
2022-09-04T00:54:58.261Z,2.63
2022-09-04T00:57:58.201Z,2.90
2022-09-04T01:00:29.267Z,2.80
2022-09-04T01:03:39.289Z,2.73
2022-09-04T01:06:31.314Z,2.90
2022-09-04T01:10:08.602Z,3.10
2022-09-04T01:12:45.630Z,2.63
2022-09-04T01:15:23.623Z,3.10
2022-09-04T01:18:03.514Z,2.47
2022-09-04T01:20:49.377Z,3.13
2022-09-04T01:23:37.886Z,3.00
2022-09-04T01:26:13.677Z,2.67
2022-09-04T01:28:58.867Z,2.33
2022-09-04T01:31:37.969Z,2.73
2022-09-04T01:34:21.057Z,3.27
2022-09-04T01:36:57.540Z,3.03
2022-09-04T01:39:30.740Z,2.33
2022-09-04T01:42:04.955Z,2.67
2022-09-04T01:44:34.217Z,2.97
2022-09-04T01:47:12.830Z,2.63
2022-09-04T01:49:47.251Z,2.90
2022-09-04T01:52:37.953Z,2.80
2022-09-04T01:55:16.768Z,3.10
2022-09-04T01:58:02.089Z,2.43
2022-09-04T02:00:35.648Z,3.00
2022-09-04T02:03:16.302Z,2.43
2022-09-04T02:06:00.507Z,2.17
2022-09-04T02:08:45.580Z,2.60
2022-09-04T02:11:17.178Z,2.67
2022-09-04T02:14:02.436Z,2.37
2022-09-04T02:16:38.869Z,2.70
2022-09-04T02:19:21.592Z,2.70
2022-09-04T02:21:57.320Z,2.60
2022-09-04T02:24:32.062Z,2.43
2022-09-04T02:27:06.745Z,2.00
2022-09-04T02:29:44.529Z,2.10
2022-09-04T02:32:20.578Z,2.33
2022-09-04T02:34:56.985Z,2.20
2022-09-04T02:37:35.553Z,2.70
2022-09-04T02:40:16.326Z,3.10
2022-09-04T02:42:58.405Z,2.50
2022-09-04T02:45:38.093Z,2.47
2022-09-04T02:48:14.902Z,2.70
2022-09-04T02:51:00.336Z,2.10
2022-09-04T02:53:36.677Z,2.33
2022-09-04T02:56:18.996Z,2.60
2022-09-04T02:59:03.810Z,2.13
2022-09-04T03:01:47.715Z,2.40
2022-09-04T03:04:23.898Z,2.80
2022-09-04T03:06:55.167Z,2.73
2022-09-04T03:09:29.571Z,2.20
2022-09-04T03:12:05.078Z,2.57
2022-09-04T03:14:40.283Z,2.57
2022-09-04T03:17:16.709Z,2.60
2022-09-04T03:19:52.878Z,2.53
2022-09-04T03:22:27.708Z,2.67
2022-09-04T03:25:25.149Z,2.60
2022-09-04T03:27:53.463Z,2.70
2022-09-04T03:30:21.733Z,2.83
2022-09-04T03:32:59.629Z,2.67
2022-09-04T03:35:36.787Z,2.60
2022-09-04T03:38:17.858Z,3.90
2022-09-04T03:41:04.452Z,2.63
2022-09-04T03:43:54.581Z,3.10
2022-09-04T03:46:36.012Z,2.37
2022-09-04T03:49:16.561Z,2.77
2022-09-04T03:51:56.807Z,2.90
2022-09-04T03:54:40.104Z,2.43
2022-09-04T03:57:25.889Z,3.10
2022-09-04T04:00:08.069Z,2.67
2022-09-04T04:03:04.197Z,2.23
2022-09-04T04:05:56.237Z,2.50
2022-09-04T04:08:38.527Z,3.30
2022-09-04T04:11:24.316Z,3.33
2022-09-04T04:14:26.723Z,2.87
2022-09-04T04:17:08.470Z,3.43
2022-09-04T04:19:54.408Z,2.90
2022-09-04T04:22:42.909Z,2.83
2022-09-04T04:25:26.562Z,3.20
2022-09-04T04:28:08.400Z,2.70
2022-09-04T04:30:52.522Z,2.47
2022-09-04T04:33:34.224Z,2.47
2022-09-04T04:36:10.763Z,2.47
2022-09-04T04:38:53.537Z,2.40
2022-09-04T04:41:54.737Z,2.70
2022-09-04T04:44:50.717Z,2.80
2022-09-04T04:47:35.357Z,2.13
2022-09-04T04:50:17.326Z,4.40
2022-09-04T04:53:01.249Z,2.60
2022-09-04T04:55:49.655Z,2.60
2022-09-04T04:58:30.093Z,2.80
2022-09-04T05:01:06.319Z,3.30
2022-09-04T05:03:48.201Z,3.33
2022-09-04T05:06:26.042Z,3.37
2022-09-04T05:09:02.351Z,3.77
2022-09-04T05:11:38.846Z,2.90
2022-09-04T05:14:18.473Z,3.30
2022-09-04T05:16:56.254Z,3.17
2022-09-04T05:19:31.737Z,3.17
2022-09-04T05:22:10.005Z,3.53
2022-09-04T05:24:45.837Z,2.80
2022-09-04T05:27:38.616Z,3.60
2022-09-04T05:30:11.911Z,3.67
2022-09-04T05:32:45.765Z,3.83
2022-09-04T05:35:19.562Z,3.27
2022-09-04T05:37:58.989Z,3.97
2022-09-04T05:40:32.561Z,3.50
2022-09-04T05:43:21.419Z,3.43
2022-09-04T05:46:00.937Z,4.03
2022-09-04T05:48:39.573Z,3.10
2022-09-04T05:51:41.076Z,3.00
2022-09-04T05:54:29.826Z,3.00
2022-09-04T05:57:35.498Z,3.03
2022-09-04T06:00:23.150Z,3.10
2022-09-04T06:03:23.773Z,3.00
2022-09-04T06:06:07.925Z,3.30
2022-09-04T06:08:58.272Z,3.70
2022-09-04T06:11:45.019Z,3.73
2022-09-04T06:14:27.385Z,4.67
2022-09-04T06:17:18.349Z,3.93
2022-09-04T06:20:06.652Z,2.57
2022-09-04T06:23:03.019Z,3.10
2022-09-04T06:25:46.992Z,3.50
2022-09-04T06:28:48.413Z,3.17
2022-09-04T06:31:51.382Z,3.33
2022-09-04T06:34:33.969Z,3.00
2022-09-04T06:37:15.202Z,3.23
2022-09-04T06:40:07.200Z,3.50
2022-09-04T06:42:54.165Z,3.03
2022-09-04T06:45:31.772Z,3.40
2022-09-04T06:48:09.534Z,3.27
2022-09-04T06:50:53.833Z,2.97
2022-09-04T06:53:38.922Z,4.83
2022-09-04T06:56:27.348Z,4.17
2022-09-04T06:59:17.379Z,3.20
2022-09-04T07:02:01.425Z,3.50
2022-09-04T07:04:45.885Z,2.53
2022-09-04T07:07:23.663Z,3.00
2022-09-04T07:10:01.362Z,2.72
2022-09-04T07:13:02.534Z,2.38
2022-09-04T07:16:07.170Z,2.35
2022-09-04T07:18:52.490Z,1.95
2022-09-04T07:21:30.480Z,2.13
2022-09-04T07:24:05.719Z,1.95
2022-09-04T07:26:40.953Z,2.10
2022-09-04T07:29:28.064Z,2.28
2022-09-04T07:32:04.456Z,1.77
2022-09-04T07:34:43.106Z,2.03
2022-09-04T07:37:25.709Z,2.17
2022-09-04T07:40:08.152Z,2.30
2022-09-04T07:42:43.492Z,2.50
2022-09-04T07:45:23.398Z,1.90
2022-09-04T07:48:04.051Z,2.53
2022-09-04T07:50:38.220Z,1.88
2022-09-04T07:53:25.208Z,2.70
2022-09-04T07:56:01.937Z,2.55
2022-09-04T07:58:58.628Z,2.40
2022-09-04T08:02:00.453Z,2.63
2022-09-04T08:04:59.753Z,2.88
2022-09-04T08:07:52.973Z,2.25
2022-09-04T08:10:31.640Z,2.33
2022-09-04T08:13:26.781Z,2.30
2022-09-04T08:16:07.666Z,2.70
2022-09-04T08:18:55.590Z,2.67
2022-09-04T08:21:29.956Z,2.33
2022-09-04T08:24:18.475Z,2.85
2022-09-04T08:27:04.150Z,2.35
2022-09-04T08:29:51.980Z,3.00
2022-09-04T08:32:42.017Z,2.20
2022-09-04T08:35:18.194Z,2.20
2022-09-04T08:38:03.537Z,2.25
2022-09-04T08:41:07.040Z,1.98
2022-09-04T08:43:51.617Z,2.10
2022-09-04T08:47:01.772Z,1.55
2022-09-04T08:50:17.569Z,2.05
2022-09-04T08:53:14.326Z,1.65
2022-09-04T08:56:01.030Z,1.50
2022-09-04T08:58:48.995Z,1.60
2022-09-04T09:01:49.350Z,1.67
2022-09-04T09:04:36.347Z,1.42
2022-09-04T09:07:45.922Z,1.83
2022-09-04T09:10:36.228Z,1.70
2022-09-04T09:13:32.465Z,1.75
2022-09-04T09:16:20.094Z,1.80
2022-09-04T09:19:12.290Z,1.55
2022-09-04T09:21:49.402Z,1.30
2022-09-04T09:24:57.719Z,1.38
2022-09-04T09:27:59.327Z,1.20
2022-09-04T09:30:42.228Z,1.52
2022-09-04T09:34:03.221Z,1.75
2022-09-04T09:37:08.737Z,1.70
2022-09-04T09:40:07.056Z,2.30
2022-09-04T09:43:11.223Z,1.80
2022-09-04T09:46:12.420Z,1.95
2022-09-04T09:49:16.638Z,1.75
2022-09-04T09:52:19.827Z,1.20
2022-09-04T09:55:23.978Z,1.48
2022-09-04T09:58:19.299Z,2.22
2022-09-04T10:01:03.387Z,1.67
2022-09-04T10:03:57.243Z,1.48
2022-09-04T10:07:02.117Z,1.90
2022-09-04T10:09:57.849Z,1.80
2022-09-04T10:13:08.421Z,1.88
2022-09-04T10:16:09.029Z,1.67
2022-09-04T10:19:12.934Z,2.13
2022-09-04T10:22:18.341Z,2.95
2022-09-04T10:25:22.210Z,1.90
2022-09-04T10:28:29.497Z,1.83
2022-09-04T10:31:30.193Z,1.50
2022-09-04T10:34:16.678Z,1.90
2022-09-04T10:37:00.982Z,2.00
2022-09-04T10:39:58.596Z,1.73
2022-09-04T10:42:41.473Z,1.60
2022-09-04T10:45:27.060Z,1.90
2022-09-04T10:48:37.124Z,2.40
2022-09-04T10:51:40.965Z,2.08
2022-09-04T10:54:38.466Z,1.85
2022-09-04T10:57:22.965Z,1.60
2022-09-04T11:00:07.667Z,1.90
2022-09-04T11:03:30.877Z,1.90
2022-09-04T11:06:33.446Z,1.70
2022-09-04T11:09:28.497Z,1.95
2022-09-04T11:12:18.053Z,2.08
2022-09-04T11:15:03.780Z,1.67
2022-09-04T11:18:22.409Z,2.10
2022-09-04T11:21:43.734Z,1.90
2022-09-04T11:25:00.048Z,1.90
2022-09-04T11:28:15.934Z,2.15
2022-09-04T11:38:17.675Z,1.83
2022-09-04T11:41:25.222Z,2.00
2022-09-04T11:44:25.151Z,1.73
2022-09-04T11:47:13.634Z,2.22
2022-09-04T11:49:54.776Z,1.90
2022-09-04T11:52:49.272Z,2.05
2022-09-04T11:55:31.295Z,2.42
2022-09-04T11:58:16.648Z,2.33
2022-09-04T12:00:58.587Z,1.70
2022-09-04T12:03:58.446Z,2.38
2022-09-04T12:06:39.270Z,2.08
2022-09-04T12:09:46.213Z,2.45
2022-09-04T12:13:14.769Z,2.03
2022-09-04T12:16:13.056Z,2.50
2022-09-04T12:19:06.275Z,2.67
2022-09-04T12:21:58.394Z,2.67
2022-09-04T12:25:11.354Z,1.83
2022-09-04T12:27:59.245Z,1.85
2022-09-04T12:30:34.985Z,1.98
2022-09-04T12:33:24.221Z,1.85
2022-09-04T12:36:39.661Z,2.15
2022-09-04T12:39:35.444Z,2.00
2022-09-04T12:42:12.716Z,2.22
2022-09-04T12:44:53.645Z,2.28
2022-09-04T12:47:34.470Z,2.25
2022-09-04T12:50:19.986Z,2.03
2022-09-04T12:53:05.220Z,2.00
2022-09-04T12:55:40.072Z,1.98
2022-09-04T12:58:18.419Z,2.05
2022-09-04T13:00:56.391Z,2.05
2022-09-04T13:03:37.626Z,1.90
2022-09-04T13:06:21.045Z,2.30
2022-09-04T13:09:01.592Z,2.70
2022-09-04T13:11:42.002Z,1.88
2022-09-04T13:14:39.662Z,2.00
2022-09-04T13:17:17.941Z,1.90
2022-09-04T13:20:00.660Z,1.77
2022-09-04T13:22:40.603Z,2.10
2022-09-04T13:25:17.192Z,2.70
2022-09-04T13:28:02.483Z,1.90
2022-09-04T13:30:34.481Z,2.47
2022-09-04T13:33:40.040Z,1.85
2022-09-04T13:36:26.656Z,1.80
2022-09-04T13:39:23.530Z,1.90
2022-09-04T13:42:24.692Z,2.33
2022-09-04T13:45:06.892Z,2.08
2022-09-04T13:47:48.019Z,2.45
2022-09-04T13:50:25.885Z,1.98
2022-09-04T13:52:59.692Z,1.83
2022-09-04T13:55:34.840Z,1.75
2022-09-04T13:58:11.803Z,1.67
2022-09-04T14:00:46.741Z,1.70
2022-09-04T14:03:31.305Z,1.95
2022-09-04T14:06:00.694Z,1.70
2022-09-04T14:08:31.388Z,1.65
2022-09-04T14:11:19.695Z,1.83
2022-09-04T14:14:13.234Z,1.70
2022-09-04T14:16:44.453Z,1.67
2022-09-04T14:19:24.575Z,2.30
2022-09-04T14:22:09.577Z,1.85
2022-09-04T14:24:46.419Z,1.85
2022-09-04T14:27:25.424Z,2.03
2022-09-04T14:30:03.641Z,1.63
2022-09-04T14:32:43.341Z,1.80
2022-09-04T14:35:22.588Z,2.05
2022-09-04T14:38:19.264Z,2.53
2022-09-04T14:40:56.840Z,1.88
2022-09-04T14:43:44.712Z,2.28
2022-09-04T14:46:28.731Z,1.92
2022-09-04T14:49:03.922Z,1.70
2022-09-04T14:51:36.257Z,1.92
2022-09-04T14:54:06.610Z,1.80
2022-09-04T14:56:42.771Z,1.90
2022-09-04T14:59:20.722Z,2.33
2022-09-04T15:02:12.957Z,2.15
2022-09-04T15:04:48.572Z,2.25
2022-09-04T15:07:30.930Z,1.80
2022-09-04T15:10:15.028Z,1.70
2022-09-04T15:12:50.914Z,2.45
2022-09-04T15:15:25.902Z,1.58
2022-09-04T15:18:01.052Z,2.40
2022-09-04T15:20:32.006Z,1.73
2022-09-04T15:23:03.801Z,2.05
2022-09-04T15:25:59.069Z,2.28
2022-09-04T15:28:38.633Z,2.47
2022-09-04T15:31:18.367Z,1.60
2022-09-04T15:33:49.051Z,1.90
2022-09-04T15:36:20.375Z,2.38
2022-09-04T15:38:52.010Z,1.73
2022-09-04T15:41:28.197Z,2.13
2022-09-04T15:44:09.694Z,2.58
2022-09-04T15:46:48.392Z,2.10
2022-09-04T15:49:31.159Z,2.00
2022-09-04T15:52:12.788Z,1.80
2022-09-04T15:55:05.689Z,2.22
2022-09-04T15:57:50.227Z,2.20
2022-09-04T16:00:27.405Z,2.45
2022-09-04T16:03:09.272Z,2.20
2022-09-04T16:05:45.061Z,2.03
2022-09-04T16:08:23.853Z,1.90
2022-09-04T16:11:02.490Z,1.88
2022-09-04T16:13:56.994Z,2.30
2022-09-04T16:16:33.564Z,2.03
2022-09-04T16:19:31.279Z,2.08
2022-09-04T16:22:08.850Z,2.22
2022-09-04T16:24:43.855Z,2.58
2022-09-04T16:27:15.487Z,2.35
2022-09-04T16:29:49.589Z,2.40
2022-09-04T16:32:22.640Z,2.65
2022-09-04T16:34:57.237Z,1.90
2022-09-04T16:37:32.546Z,2.20
2022-09-04T16:40:13.566Z,2.40
2022-09-04T16:42:47.959Z,2.28
2022-09-04T16:45:21.329Z,2.53
2022-09-04T16:48:01.810Z,2.80
2022-09-04T16:50:53.812Z,2.45
2022-09-04T16:53:33.247Z,2.05
2022-09-04T16:56:07.541Z,2.40
2022-09-04T16:58:40.504Z,2.45
2022-09-04T17:01:18.834Z,1.63
2022-09-04T17:04:24.027Z,2.53
2022-09-04T17:07:03.935Z,2.45
2022-09-04T17:09:43.230Z,2.95
2022-09-04T17:12:24.451Z,2.42
2022-09-04T17:15:01.795Z,2.53
2022-09-04T17:17:32.335Z,2.53
2022-09-04T17:20:04.578Z,2.80
2022-09-04T17:28:57.615Z,3.03
2022-09-04T17:29:12.871Z,2.50
2022-09-04T17:29:15.419Z,2.50
2022-09-04T17:31:28.680Z,2.05
2022-09-04T17:40:21.526Z,2.55
2022-09-04T17:40:43.703Z,3.08
2022-09-04T17:40:48.046Z,2.10
2022-09-04T17:43:14.846Z,2.15
2022-09-04T17:45:44.174Z,2.90
2022-09-04T17:48:24.250Z,3.17
2022-09-04T17:50:55.931Z,3.08
2022-09-04T17:53:34.407Z,2.53
2022-09-04T17:56:13.752Z,2.50
2022-09-04T17:58:49.434Z,2.47
2022-09-04T18:01:25.899Z,3.30
2022-09-04T18:04:20.345Z,3.03
2022-09-04T18:06:56.045Z,3.10
2022-09-04T18:09:32.131Z,2.70
2022-09-04T18:12:11.192Z,2.20
2022-09-04T18:14:53.157Z,2.63
2022-09-04T18:17:50.637Z,3.00
2022-09-04T18:20:29.841Z,2.70
2022-09-04T18:23:18.111Z,2.72
2022-09-04T18:25:51.700Z,2.58
2022-09-04T18:28:28.016Z,3.00
2022-09-04T18:36:27.371Z,2.80
2022-09-04T18:37:26.211Z,3.45
2022-09-04T18:37:27.094Z,2.92
2022-09-04T18:39:50.757Z,2.65
2022-09-04T18:50:24.771Z,3.35
2022-09-04T18:50:39.225Z,3.35
2022-09-04T18:50:47.015Z,2.47
2022-09-04T18:51:21.904Z,2.95
2022-09-04T18:53:54.773Z,3.17
2022-09-04T18:56:29.078Z,3.72
2022-09-04T18:59:07.585Z,3.35
2022-09-04T19:01:44.480Z,2.90
2022-09-04T19:04:34.358Z,3.60
2022-09-04T19:07:08.090Z,3.20
2022-09-04T19:10:04.948Z,3.22
2022-09-04T19:12:46.692Z,3.65
2022-09-04T19:15:45.094Z,4.07
2022-09-04T19:18:26.763Z,3.50
2022-09-04T19:21:14.819Z,3.22
2022-09-04T19:23:50.057Z,3.05
2022-09-04T19:26:27.161Z,3.25
2022-09-04T19:29:00.558Z,3.25
2022-09-04T19:31:36.235Z,3.00
2022-09-04T19:34:15.245Z,3.00
2022-09-04T19:36:50.880Z,3.30
2022-09-04T19:45:53.509Z,3.30
2022-09-04T19:46:06.998Z,3.13
2022-09-04T19:46:18.621Z,3.65
2022-09-04T19:48:26.683Z,3.22
2022-09-04T19:53:24.562Z,2.83
2022-09-04T19:53:59.410Z,3.47
2022-09-04T19:56:32.511Z,3.40
2022-09-04T19:59:21.293Z,3.20
2022-09-04T20:01:58.188Z,3.13
2022-09-04T20:04:41.212Z,3.50
2022-09-04T20:07:23.510Z,3.35
2022-09-04T20:09:54.483Z,3.55
2022-09-04T20:12:29.131Z,3.58
2022-09-04T20:15:07.917Z,3.53
2022-09-04T20:18:04.497Z,3.17
2022-09-04T20:20:46.261Z,3.42
2022-09-04T20:23:35.155Z,3.45
2022-09-04T20:26:12.181Z,3.70
2022-09-04T20:28:52.992Z,3.53
2022-09-04T20:31:49.484Z,3.30
2022-09-04T20:34:31.340Z,3.58
2022-09-04T20:37:19.438Z,3.63
2022-09-04T20:40:01.615Z,3.17
2022-09-04T20:42:41.047Z,3.60
2022-09-04T20:48:15.307Z,3.63
2022-09-04T20:52:49.299Z,3.33
2022-09-04T20:52:54.576Z,4.25
2022-09-04T20:54:35.149Z,2.95
2022-09-04T20:59:35.942Z,3.33
2022-09-04T21:03:13.349Z,3.33
2022-09-04T21:03:17.735Z,3.20
2022-09-04T21:06:17.772Z,2.70
2022-09-04T21:08:54.763Z,3.35
2022-09-04T21:11:41.187Z,3.63
2022-09-04T21:14:18.057Z,3.20
2022-09-04T21:17:34.935Z,3.35
2022-09-04T21:20:33.479Z,3.50
2022-09-04T21:23:26.182Z,3.40
2022-09-04T21:26:05.638Z,3.13
2022-09-04T21:29:12.275Z,3.00
2022-09-04T21:32:05.641Z,3.53
2022-09-04T21:34:55.959Z,3.63
2022-09-04T21:37:33.233Z,3.22
2022-09-04T21:40:51.054Z,3.75
2022-09-04T21:43:52.959Z,3.60
2022-09-04T21:46:46.363Z,3.67
2022-09-04T21:49:36.472Z,3.38
2022-09-04T21:52:32.072Z,4.13
2022-09-04T21:58:45.403Z,3.30
2022-09-04T22:02:37.496Z,3.05
2022-09-04T22:02:41.885Z,3.80
2022-09-04T22:04:26.831Z,3.10
2022-09-04T22:10:39.887Z,3.25
2022-09-04T22:13:34.390Z,4.15
2022-09-04T22:13:41.410Z,3.22
2022-09-04T22:16:05.113Z,3.40
2022-09-04T22:19:23.536Z,3.78
2022-09-04T22:22:07.839Z,3.53
2022-09-04T22:24:53.678Z,3.78
2022-09-04T22:28:09.268Z,3.75
2022-09-04T22:30:58.683Z,3.50
2022-09-04T22:34:15.155Z,3.60
2022-09-04T22:37:13.376Z,2.92
2022-09-04T22:39:58.132Z,3.50
2022-09-04T22:42:46.095Z,4.05
2022-09-04T22:45:41.893Z,4.10
2022-09-04T22:49:09.953Z,3.60
2022-09-04T22:52:09.887Z,3.05
2022-09-04T22:55:23.071Z,3.10
2022-09-04T22:58:21.885Z,3.60
2022-09-04T23:01:10.767Z,3.65
2022-09-04T23:03:57.308Z,3.92
2022-09-04T23:13:43.022Z,3.85
2022-09-04T23:13:44.034Z,3.78
2022-09-04T23:13:57.992Z,3.35
2022-09-04T23:16:47.180Z,3.15
2022-09-04T23:26:35.248Z,3.30
2022-09-04T23:26:47.172Z,3.80
2022-09-04T23:26:49.025Z,3.53
2022-09-04T23:29:17.448Z,3.78
2022-09-04T23:32:18.173Z,3.65
2022-09-04T23:35:14.311Z,3.60
2022-09-04T23:38:16.482Z,4.00
2022-09-04T23:40:47.255Z,4.43
2022-09-04T23:43:40.419Z,3.60
2022-09-04T23:46:31.412Z,3.85
2022-09-04T23:49:40.867Z,3.65
2022-09-04T23:52:27.134Z,3.65
2022-09-04T23:55:23.746Z,3.65
2022-09-04T23:58:49.448Z,4.00
